Time,TemperatureF,DewpointF,PressureIn,WindDirection,WindDirectionDegrees,WindSpeedMPH,WindSpeedGustMPH,Humidity,HourlyPrecipIn,Conditions,Clouds,dailyrainin,SoftwareType,DateUTC
2013-01-26 00:02:00,3.6,-4.0,29.64,NNW,337,0.0,0.0,70,0.00,,,0.00,WUHU21623XXSP,2013-01-26 06:02:00,
2013-01-26 00:07:00,3.4,-4.2,29.64,NNW,337,0.0,0.0,70,0.00,,,0.00,WUHU21623XXSP,2013-01-26 06:07:00,
2013-01-26 00:13:00,3.4,-4.2,29.64,NNW,337,0.0,0.0,70,0.00,,,0.00,WUHU21623XXSP,2013-01-26 06:13:00,
2013-01-26 00:18:00,3.2,-4.1,29.64,NNW,337,0.0,0.0,71,0.00,,,0.00,WUHU21623XXSP,2013-01-26 06:18:00,
2013-01-26 00:23:00,3.0,-4.3,29.64,NNW,337,0.0,0.0,71,0.00,,,0.00,WUHU21623XXSP,2013-01-26 06:23:00,
2013-01-26 00:28:00,3.4,-3.9,29.63,NNW,337,0.0,0.0,71,0.00,,,0.00,WUHU21623XXSP,2013-01-26 06:28:00,
2013-01-26 00:33:00,3.2,-4.1,29.63,NNW,337,0.0,0.0,71,0.00,,,0.00,WUHU21623XXSP,2013-01-26 06:33:00,
2013-01-26 00:38:00,3.0,-4.3,29.63,NNW,337,0.0,0.0,71,0.00,,,0.00,WUHU21623XXSP,2013-01-26 06:38:00,
2013-01-26 00:43:00,3.0,-4.3,29.63,NNW,337,0.0,0.0,71,0.00,,,0.00,WUHU21623XXSP,2013-01-26 06:43:00,
2013-01-26 00:48:00,2.8,-4.5,29.63,NNW,337,0.0,0.0,71,0.00,,,0.00,WUHU21623XXSP,2013-01-26 06:48:00,
2013-01-26 00:53:00,2.8,-4.5,29.64,NNW,337,0.0,0.0,71,0.00,,,0.00,WUHU21623XXSP,2013-01-26 06:53:00,
2013-01-26 00:58:00,2.5,-4.6,29.64,NNW,337,0.0,0.0,71,0.00,,,0.00,WUHU21623XXSP,2013-01-26 06:58:00,
2013-01-26 01:03:00,2.5,-4.8,29.64,NNW,337,0.0,0.0,71,0.00,,,0.00,WUHU21623XXSP,2013-01-26 07:03:00,
2013-01-26 01:08:00,2.5,-4.8,29.64,NNW,337,0.0,0.0,71,0.00,,,0.00,WUHU21623XXSP,2013-01-26 07:08:00,
2013-01-26 01:13:00,2.1,-5.4,29.64,NNW,337,0.0,0.0,70,0.00,,,0.00,WUHU21623XXSP,2013-01-26 07:13:00,
2013-01-26 01:18:00,2.1,-5.4,29.63,NNW,337,0.0,0.0,70,0.00,,,0.00,WUHU21623XXSP,2013-01-26 07:18:00,
2013-01-26 01:23:00,1.8,-5.8,29.64,NNW,337,0.0,0.0,70,0.00,,,0.00,WUHU21623XXSP,2013-01-26 07:23:00,
2013-01-26 01:28:00,1.6,-6.0,29.63,NNW,337,0.0,0.0,70,0.00,,,0.00,WUHU21623XXSP,2013-01-26 07:28:00,
2013-01-26 01:34:00,1.4,-6.2,29.64,NNW,337,0.0,0.0,70,0.00,,,0.00,WUHU21623XXSP,2013-01-26 07:34:00,
2013-01-26 01:39:00,1.4,-6.2,29.64,NNW,337,0.0,0.0,70,0.00,,,0.00,WUHU21623XXSP,2013-01-26 07:39:00,
2013-01-26 01:44:00,1.4,-6.2,29.64,NNW,337,0.0,0.0,70,0.00,,,0.00,WUHU21623XXSP,2013-01-26 07:44:00,
2013-01-26 01:49:00,1.2,-6.2,29.65,NNW,337,0.0,0.0,70,0.00,,,0.00,WUHU21623XXSP,2013-01-26 07:49:00,
2013-01-26 01:54:00,1.2,-6.1,29.65,NNW,337,0.0,0.0,71,0.00,,,0.00,WUHU21623XXSP,2013-01-26 07:54:00,
2013-01-26 01:59:00,1.2,-6.1,29.66,NNW,337,0.0,0.0,71,0.00,,,0.00,WUHU21623XXSP,2013-01-26 07:59:00,
2013-01-26 02:04:00,1.2,-6.1,29.65,NNW,337,0.0,0.0,71,0.00,,,0.00,WUHU21623XXSP,2013-01-26 08:04:00,
2013-01-26 02:09:00,1.2,-6.1,29.66,NNW,337,0.0,0.0,71,0.00,,,0.00,WUHU21623XXSP,2013-01-26 08:09:00,
2013-01-26 02:14:00,1.2,-6.1,29.66,NNW,337,0.0,0.0,71,0.00,,,0.00,WUHU21623XXSP,2013-01-26 08:14:00,
2013-01-26 02:19:00,1.4,-5.9,29.66,NNW,337,0.0,0.0,71,0.00,,,0.00,WUHU21623XXSP,2013-01-26 08:19:00,
2013-01-26 02:24:00,1.6,-5.7,29.66,NNW,337,0.0,0.0,71,0.00,,,0.00,WUHU21623XXSP,2013-01-26 08:24:00,
2013-01-26 02:29:00,1.6,-5.7,29.66,NNW,337,0.0,0.0,71,0.00,,,0.00,WUHU21623XXSP,2013-01-26 08:29:00,
2013-01-26 02:34:00,1.8,-5.3,29.66,NNW,337,0.0,0.0,72,0.00,,,0.00,WUHU21623XXSP,2013-01-26 08:34:00,
2013-01-26 02:39:00,1.8,-5.3,29.66,NNW,337,0.0,0.0,72,0.00,,,0.00,WUHU21623XXSP,2013-01-26 08:39:00,
2013-01-26 02:44:00,1.8,-5.3,29.66,NNW,337,0.0,0.0,72,0.00,,,0.00,WUHU21623XXSP,2013-01-26 08:44:00,
2013-01-26 02:49:00,1.6,-5.7,29.66,NNW,337,0.0,0.0,71,0.00,,,0.00,WUHU21623XXSP,2013-01-26 08:49:00,
2013-01-26 02:54:00,1.6,-5.4,29.66,NNW,337,0.0,0.0,72,0.00,,,0.00,WUHU21623XXSP,2013-01-26 08:54:00,
2013-01-26 02:59:00,1.2,-6.1,29.66,NNW,337,0.0,0.0,71,0.00,,,0.00,WUHU21623XXSP,2013-01-26 08:59:00,
2013-01-26 03:04:00,1.2,-6.1,29.66,NNW,337,0.0,0.0,71,0.00,,,0.00,WUHU21623XXSP,2013-01-26 09:04:00,
2013-01-26 03:09:00,1.2,-6.1,29.65,NNW,337,0.0,0.0,71,0.00,,,0.00,WUHU21623XXSP,2013-01-26 09:09:00,
2013-01-26 03:14:00,1.2,-6.1,29.65,NNW,337,0.0,0.0,71,0.00,,,0.00,WUHU21623XXSP,2013-01-26 09:14:00,
2013-01-26 03:20:00,1.0,-6.3,29.65,NNW,337,0.0,0.0,71,0.00,,,0.00,WUHU21623XXSP,2013-01-26 09:20:00,
2013-01-26 03:25:00,0.7,-6.4,29.66,NNW,337,0.0,0.0,71,0.00,,,0.00,WUHU21623XXSP,2013-01-26 09:25:00,
2013-01-26 03:30:00,0.5,-6.5,29.66,NNW,337,0.0,0.0,72,0.00,,,0.00,WUHU21623XXSP,2013-01-26 09:30:00,
2013-01-26 03:35:00,0.3,-6.7,29.66,NNW,337,0.0,0.0,72,0.00,,,0.00,WUHU21623XXSP,2013-01-26 09:35:00,
2013-01-26 03:40:00,0.3,-6.7,29.65,NNW,337,0.0,0.0,72,0.00,,,0.00,WUHU21623XXSP,2013-01-26 09:40:00,
2013-01-26 03:45:00,0.1,-6.9,29.65,NNW,337,0.0,0.0,72,0.00,,,0.00,WUHU21623XXSP,2013-01-26 09:45:00,
2013-01-26 03:50:00,0.1,-6.9,29.65,NNW,337,0.0,0.0,72,0.00,,,0.00,WUHU21623XXSP,2013-01-26 09:50:00,
2013-01-26 03:55:00,0.0,-7.0,29.64,NNW,337,0.0,0.0,72,0.00,,,0.00,WUHU21623XXSP,2013-01-26 09:55:00,
2013-01-26 04:00:00,-0.2,-7.0,29.64,NNW,337,0.0,0.0,72,0.00,,,0.00,WUHU21623XXSP,2013-01-26 10:00:00,
2013-01-26 04:05:00,-0.2,-7.2,29.64,NNW,337,0.0,0.0,72,0.00,,,0.00,WUHU21623XXSP,2013-01-26 10:05:00,
2013-01-26 04:10:00,0.0,-7.0,29.64,NNW,337,0.0,0.0,72,0.00,,,0.00,WUHU21623XXSP,2013-01-26 10:10:00,
2013-01-26 04:15:00,0.0,-7.0,29.64,NNW,337,0.0,0.0,72,0.00,,,0.00,WUHU21623XXSP,2013-01-26 10:15:00,
2013-01-26 04:20:00,0.1,-6.9,29.64,NNW,337,0.0,0.0,72,0.00,,,0.00,WUHU21623XXSP,2013-01-26 10:20:00,
2013-01-26 04:25:00,0.0,-7.0,29.65,NNW,337,0.0,0.0,72,0.00,,,0.00,WUHU21623XXSP,2013-01-26 10:25:00,
2013-01-26 04:30:00,0.0,-7.0,29.65,NNW,337,0.0,0.0,72,0.00,,,0.00,WUHU21623XXSP,2013-01-26 10:30:00,
2013-01-26 04:35:00,0.0,-7.0,29.64,NNW,337,0.0,0.0,72,0.00,,,0.00,WUHU21623XXSP,2013-01-26 10:35:00,
2013-01-26 04:40:00,-0.2,-7.2,29.65,NNW,337,0.0,0.0,72,0.00,,,0.00,WUHU21623XXSP,2013-01-26 10:40:00,
2013-01-26 04:46:00,-0.2,-7.2,29.65,NNW,337,0.0,0.0,72,0.00,,,0.00,WUHU21623XXSP,2013-01-26 10:46:00,
2013-01-26 04:51:00,-0.6,-7.6,29.65,NNW,337,0.0,0.0,72,0.00,,,0.00,WUHU21623XXSP,2013-01-26 10:51:00,
2013-01-26 04:56:00,-0.6,-7.6,29.65,NNW,337,0.0,0.0,72,0.00,,,0.00,WUHU21623XXSP,2013-01-26 10:56:00,
2013-01-26 05:01:00,-0.6,-7.6,29.65,NNW,337,0.0,0.0,72,0.00,,,0.00,WUHU21623XXSP,2013-01-26 11:01:00,
2013-01-26 05:06:00,-0.8,-7.7,29.66,NNW,337,0.0,0.0,72,0.00,,,0.00,WUHU21623XXSP,2013-01-26 11:06:00,
2013-01-26 05:11:00,-0.8,-7.7,29.66,NNW,337,0.0,0.0,72,0.00,,,0.00,WUHU21623XXSP,2013-01-26 11:11:00,
2013-01-26 05:16:00,-0.8,-7.4,29.66,NNW,337,0.0,0.0,73,0.00,,,0.00,WUHU21623XXSP,2013-01-26 11:16:00,
2013-01-26 05:21:00,-0.9,-7.4,29.66,NNW,337,0.0,0.0,73,0.00,,,0.00,WUHU21623XXSP,2013-01-26 11:21:00,
2013-01-26 05:26:00,-0.9,-7.6,29.66,NNW,337,0.0,0.0,73,0.00,,,0.00,WUHU21623XXSP,2013-01-26 11:26:00,
2013-01-26 05:31:00,-0.8,-7.8,29.66,NNW,337,0.0,0.0,73,0.00,,,0.00,WUHU21623XXSP,2013-01-26 11:31:00,
2013-01-26 05:36:00,-0.8,-7.4,29.66,NNW,337,0.0,0.0,73,0.00,,,0.00,WUHU21623XXSP,2013-01-26 11:36:00,
2013-01-26 05:41:00,-0.8,-7.4,29.66,NNW,337,0.0,0.0,73,0.00,,,0.00,WUHU21623XXSP,2013-01-26 11:41:00,
2013-01-26 05:46:00,-0.8,-7.4,29.66,NNW,337,0.0,0.0,73,0.00,,,0.00,WUHU21623XXSP,2013-01-26 11:46:00,
2013-01-26 05:51:00,-0.8,-7.4,29.66,NNW,337,0.0,0.0,73,0.00,,,0.00,WUHU21623XXSP,2013-01-26 11:51:00,
2013-01-26 05:56:00,-0.8,-7.4,29.66,NNW,337,0.0,0.0,73,0.00,,,0.00,WUHU21623XXSP,2013-01-26 11:56:00,
2013-01-26 06:01:00,-0.8,-7.4,29.66,NNW,337,0.0,0.0,73,0.00,,,0.00,WUHU21623XXSP,2013-01-26 12:01:00,
2013-01-26 06:06:00,-0.8,-7.4,29.66,NNW,337,0.0,0.0,73,0.00,,,0.00,WUHU21623XXSP,2013-01-26 12:06:00,
2013-01-26 06:11:00,-0.8,-7.4,29.66,NNW,337,0.0,0.0,73,0.00,,,0.00,WUHU21623XXSP,2013-01-26 12:11:00,
2013-01-26 06:16:00,-0.8,-7.4,29.66,NNW,337,0.0,0.0,73,0.00,,,0.00,WUHU21623XXSP,2013-01-26 12:16:00,
2013-01-26 06:21:00,-0.8,-7.1,29.66,NNW,337,0.0,0.0,74,0.00,,,0.00,WUHU21623XXSP,2013-01-26 12:21:00,
2013-01-26 06:26:00,-0.8,-7.1,29.66,NNW,337,0.0,0.0,74,0.00,,,0.00,WUHU21623XXSP,2013-01-26 12:26:00,
2013-01-26 06:31:00,-0.8,-7.1,29.66,NNW,337,0.0,0.0,74,0.00,,,0.00,WUHU21623XXSP,2013-01-26 12:31:00,
2013-01-26 06:36:00,-0.8,-7.1,29.67,NNW,337,0.0,0.0,74,0.00,,,0.00,WUHU21623XXSP,2013-01-26 12:36:00,
2013-01-26 06:41:00,-0.8,-7.1,29.67,NNW,337,0.0,0.0,74,0.00,,,0.00,WUHU21623XXSP,2013-01-26 12:41:00,
2013-01-26 06:46:00,-0.8,-7.1,29.66,NNW,337,0.0,0.0,74,0.00,,,0.00,WUHU21623XXSP,2013-01-26 12:46:00,
2013-01-26 06:51:00,-0.8,-7.1,29.66,NNW,337,0.0,0.0,74,0.00,,,0.00,WUHU21623XXSP,2013-01-26 12:51:00,
2013-01-26 06:57:00,-0.8,-7.1,29.66,NNW,337,0.0,0.0,74,0.00,,,0.00,WUHU21623XXSP,2013-01-26 12:57:00,
2013-01-26 07:02:00,-0.8,-7.1,29.67,NNW,337,0.0,0.0,74,0.00,,,0.00,WUHU21623XXSP,2013-01-26 13:02:00,
2013-01-26 07:07:00,-0.6,-7.0,29.67,NNW,337,0.0,0.0,74,0.00,,,0.00,WUHU21623XXSP,2013-01-26 13:07:00,
2013-01-26 07:12:00,-0.6,-7.0,29.68,NNW,337,0.0,0.0,74,0.00,,,0.00,WUHU21623XXSP,2013-01-26 13:12:00,
2013-01-26 07:17:00,-0.2,-6.6,29.68,NNW,337,0.0,0.0,74,0.00,,,0.00,WUHU21623XXSP,2013-01-26 13:17:00,
2013-01-26 07:22:00,-0.2,-6.6,29.67,NNW,337,0.0,0.0,74,0.00,,,0.00,WUHU21623XXSP,2013-01-26 13:22:00,
2013-01-26 07:27:00,-0.2,-6.6,29.67,NNW,337,0.0,0.0,74,0.00,,,0.00,WUHU21623XXSP,2013-01-26 13:27:00,
2013-01-26 07:32:00,-0.2,-6.6,29.66,NNW,337,0.0,0.0,74,0.00,,,0.00,WUHU21623XXSP,2013-01-26 13:32:00,
2013-01-26 07:37:00,0.0,-6.6,29.66,NNW,337,0.0,0.0,75,0.00,,,0.00,WUHU21623XXSP,2013-01-26 13:37:00,
2013-01-26 07:42:00,0.1,-6.0,29.66,NNW,337,0.0,0.0,75,0.00,,,0.00,WUHU21623XXSP,2013-01-26 13:42:00,
2013-01-26 07:47:00,0.3,-5.8,29.66,NNW,337,0.0,0.0,75,0.00,,,0.00,WUHU21623XXSP,2013-01-26 13:47:00,
2013-01-26 07:52:00,0.7,-5.7,29.67,NNW,337,0.0,0.0,75,0.00,,,0.00,WUHU21623XXSP,2013-01-26 13:52:00,
2013-01-26 07:57:00,0.9,-5.3,29.67,NNW,337,0.0,0.0,75,0.00,,,0.00,WUHU21623XXSP,2013-01-26 13:57:00,
2013-01-26 08:02:00,1.0,-5.2,29.68,NNW,337,0.0,0.0,75,0.00,,,0.00,WUHU21623XXSP,2013-01-26 14:02:00,
2013-01-26 08:07:00,1.2,-5.0,29.68,NNW,337,0.0,0.0,75,0.00,,,0.00,WUHU21623XXSP,2013-01-26 14:07:00,
2013-01-26 08:12:00,1.6,-4.6,29.67,NNW,337,0.0,0.0,75,0.00,,,0.00,WUHU21623XXSP,2013-01-26 14:12:00,
2013-01-26 08:17:00,1.9,-4.3,29.67,NNW,337,0.0,0.0,75,0.00,,,0.00,WUHU21623XXSP,2013-01-26 14:17:00,
2013-01-26 08:22:00,2.1,-4.1,29.68,NNW,337,0.0,0.0,75,0.00,,,0.00,WUHU21623XXSP,2013-01-26 14:22:00,
2013-01-26 08:28:00,2.5,-3.7,29.68,NNW,337,0.0,0.0,75,0.00,,,0.00,WUHU21623XXSP,2013-01-26 14:28:00,
2013-01-26 08:33:00,2.7,-3.6,29.68,NNW,337,0.0,0.0,75,0.00,,,0.00,WUHU21623XXSP,2013-01-26 14:33:00,
2013-01-26 08:38:00,3.0,-3.2,29.67,NNW,337,0.0,0.0,75,0.00,,,0.00,WUHU21623XXSP,2013-01-26 14:38:00,
2013-01-26 08:43:00,4.3,-2.0,29.67,NNW,337,0.0,0.0,75,0.00,,,0.00,WUHU21623XXSP,2013-01-26 14:43:00,
2013-01-26 08:48:00,5.2,-0.8,29.67,NNW,337,0.0,0.0,76,0.00,,,0.00,WUHU21623XXSP,2013-01-26 14:48:00,
2013-01-26 08:53:00,6.1,-0.2,29.67,NNW,337,0.0,0.0,75,0.00,,,0.00,WUHU21623XXSP,2013-01-26 14:53:00,
2013-01-26 08:58:00,6.6,0.3,29.67,West,270,0.0,0.0,75,0.00,,,0.00,WUHU21623XXSP,2013-01-26 14:58:00,
2013-01-26 09:03:00,7.2,0.9,29.68,West,270,0.0,0.0,75,0.00,,,0.00,WUHU21623XXSP,2013-01-26 15:03:00,
2013-01-26 09:08:00,7.5,0.9,29.67,West,270,0.0,0.0,74,0.00,,,0.00,WUHU21623XXSP,2013-01-26 15:08:00,
2013-01-26 09:13:00,7.9,1.0,29.67,SW,225,0.0,0.0,73,0.00,,,0.00,WUHU21623XXSP,2013-01-26 15:13:00,
2013-01-26 09:18:00,8.2,1.4,29.67,SW,225,0.0,0.0,73,0.00,,,0.00,WUHU21623XXSP,2013-01-26 15:18:00,
2013-01-26 09:23:00,8.6,1.7,29.66,SW,225,0.0,0.0,73,0.00,,,0.00,WUHU21623XXSP,2013-01-26 15:23:00,
2013-01-26 09:28:00,8.8,1.6,29.67,SW,225,0.0,0.0,72,0.00,,,0.00,WUHU21623XXSP,2013-01-26 15:28:00,
2013-01-26 09:33:00,9.3,2.1,29.66,SW,225,0.0,0.0,72,0.00,,,0.00,WUHU21623XXSP,2013-01-26 15:33:00,
2013-01-26 09:38:00,10.0,2.7,29.67,SSW,202,0.0,0.0,72,0.00,,,0.00,WUHU21623XXSP,2013-01-26 15:38:00,
2013-01-26 09:43:00,10.2,2.6,29.67,ESE,112,0.0,0.0,71,0.00,,,0.00,WUHU21623XXSP,2013-01-26 15:43:00,
2013-01-26 09:48:00,10.8,2.9,29.67,ESE,112,0.0,0.0,71,0.00,,,0.00,WUHU21623XXSP,2013-01-26 15:48:00,
2013-01-26 09:53:00,11.8,4.2,29.67,ESE,112,0.0,0.0,71,0.00,,,0.00,WUHU21623XXSP,2013-01-26 15:53:00,
2013-01-26 09:58:00,12.7,5.1,29.66,SE,135,0.0,0.0,71,0.00,,,0.00,WUHU21623XXSP,2013-01-26 15:58:00,
2013-01-26 10:03:00,13.3,5.3,29.67,ESE,112,0.0,0.0,71,0.00,,,0.00,WUHU21623XXSP,2013-01-26 16:03:00,
2013-01-26 10:08:00,14.5,6.6,29.67,ESE,112,0.0,0.0,70,0.00,,,0.00,WUHU21623XXSP,2013-01-26 16:08:00,
2013-01-26 10:13:00,15.6,7.1,29.67,ESE,112,0.0,0.0,70,0.00,,,0.00,WUHU21623XXSP,2013-01-26 16:13:00,
2013-01-26 10:18:00,17.2,8.5,29.67,SE,135,0.0,0.0,68,0.00,,,0.00,WUHU21623XXSP,2013-01-26 16:18:00,
2013-01-26 10:23:00,18.0,8.8,29.67,ESE,112,0.0,0.0,67,0.00,,,0.00,WUHU21623XXSP,2013-01-26 16:23:00,
2013-01-26 10:28:00,18.7,9.1,29.67,ESE,112,0.0,0.0,67,0.00,,,0.00,WUHU21623XXSP,2013-01-26 16:28:00,
2013-01-26 10:33:00,20.5,10.5,29.67,ESE,112,0.0,5.1,65,0.00,,,0.00,WUHU21623XXSP,2013-01-26 16:33:00,
2013-01-26 10:38:00,20.8,10.2,29.66,South,180,5.6,5.6,63,0.00,,,0.00,WUHU21623XXSP,2013-01-26 16:38:00,
2013-01-26 10:43:00,21.0,10.0,29.67,SE,135,0.0,5.6,62,0.00,,,0.00,WUHU21623XXSP,2013-01-26 16:43:00,
2013-01-26 10:49:00,21.9,10.5,29.68,ESE,112,4.7,4.7,61,0.00,,,0.00,WUHU21623XXSP,2013-01-26 16:49:00,
2013-01-26 10:54:00,21.6,9.8,29.65,South,180,0.0,4.7,60,0.00,,,0.00,WUHU21623XXSP,2013-01-26 16:54:00,
2013-01-26 10:59:00,22.3,10.1,29.64,SE,135,6.0,6.0,59,0.00,,,0.00,WUHU21623XXSP,2013-01-26 16:59:00,
2013-01-26 11:04:00,22.3,9.8,29.65,ESE,112,0.0,6.0,58,0.00,,,0.00,WUHU21623XXSP,2013-01-26 17:04:00,
2013-01-26 11:09:00,21.9,8.9,29.65,SE,135,7.6,7.6,57,0.00,,,0.00,WUHU21623XXSP,2013-01-26 17:09:00,
2013-01-26 11:14:00,21.4,8.4,29.65,ESE,112,0.0,7.6,58,0.00,,,0.00,WUHU21623XXSP,2013-01-26 17:14:00,
2013-01-26 11:19:00,21.0,8.3,29.65,ESE,112,5.6,5.6,57,0.00,,,0.00,WUHU21623XXSP,2013-01-26 17:19:00,
2013-01-26 11:24:00,21.4,8.8,29.65,ESE,112,0.0,5.6,58,0.00,,,0.00,WUHU21623XXSP,2013-01-26 17:24:00,
2013-01-26 11:29:00,22.8,10.5,29.65,SSE,157,0.0,5.6,59,0.00,,,0.00,WUHU21623XXSP,2013-01-26 17:29:00,
2013-01-26 11:34:00,24.1,11.2,29.64,SE,135,0.0,0.0,58,0.00,,,0.00,WUHU21623XXSP,2013-01-26 17:34:00,
2013-01-26 11:39:00,24.4,11.3,29.64,ESE,112,0.0,0.0,56,0.00,,,0.00,WUHU21623XXSP,2013-01-26 17:39:00,
2013-01-26 11:44:00,25.9,11.8,29.63,SE,135,0.0,0.0,55,0.00,,,0.00,WUHU21623XXSP,2013-01-26 17:44:00,
2013-01-26 11:49:00,27.7,13.1,29.63,ESE,112,0.0,2.9,54,0.00,,,0.00,WUHU21623XXSP,2013-01-26 17:49:00,
2013-01-26 11:54:00,28.2,13.3,29.63,South,180,0.0,4.7,53,0.00,,,0.00,WUHU21623XXSP,2013-01-26 17:54:00,
2013-01-26 11:59:00,27.1,10.9,29.63,South,180,7.6,7.6,50,0.00,,,0.00,WUHU21623XXSP,2013-01-26 17:59:00,
2013-01-26 12:04:00,25.5,9.8,29.62,South,180,7.6,7.6,50,0.00,,,0.00,WUHU21623XXSP,2013-01-26 18:04:00,
2013-01-26 12:09:00,24.6,9.0,29.62,South,180,6.7,7.6,51,0.00,,,0.00,WUHU21623XXSP,2013-01-26 18:09:00,
2013-01-26 12:14:00,25.5,10.3,29.62,NE,45,0.0,6.7,52,0.00,,,0.00,WUHU21623XXSP,2013-01-26 18:14:00,
2013-01-26 12:19:00,26.4,10.7,29.62,South,180,6.3,6.7,51,0.00,,,0.00,WUHU21623XXSP,2013-01-26 18:19:00,
2013-01-26 12:24:00,27.1,10.8,29.62,South,180,0.0,8.5,50,0.00,,,0.00,WUHU21623XXSP,2013-01-26 18:24:00,
2013-01-26 12:29:00,28.0,11.5,29.61,South,180,5.6,8.5,49,0.00,,,0.00,WUHU21623XXSP,2013-01-26 18:29:00,
2013-01-26 12:35:00,28.0,10.8,29.62,SSW,202,5.6,6.9,48,0.00,,,0.00,WUHU21623XXSP,2013-01-26 18:35:00,
2013-01-26 12:40:00,27.3,10.1,29.61,South,180,0.0,6.9,48,0.00,,,0.00,WUHU21623XXSP,2013-01-26 18:40:00,
2013-01-26 12:45:00,26.4,9.8,29.61,SSW,202,6.5,6.5,49,0.00,,,0.00,WUHU21623XXSP,2013-01-26 18:45:00,
2013-01-26 12:50:00,25.9,9.3,29.61,South,180,4.0,6.5,49,0.00,,,0.00,WUHU21623XXSP,2013-01-26 18:50:00,
2013-01-26 12:55:00,25.5,8.9,29.61,South,180,6.0,6.5,49,0.00,,,0.00,WUHU21623XXSP,2013-01-26 18:55:00,
2013-01-26 13:00:00,25.5,9.4,29.61,SSW,202,0.0,6.0,50,0.00,,,0.00,WUHU21623XXSP,2013-01-26 19:00:00,
2013-01-26 13:05:00,25.3,9.3,29.61,South,180,6.3,6.3,50,0.00,,,0.00,WUHU21623XXSP,2013-01-26 19:05:00,
2013-01-26 13:10:00,25.3,9.3,29.60,SSW,202,0.0,7.6,50,0.00,,,0.00,WUHU21623XXSP,2013-01-26 19:10:00,
2013-01-26 13:15:00,25.0,9.4,29.60,South,180,0.0,7.6,51,0.00,,,0.00,WUHU21623XXSP,2013-01-26 19:15:00,
2013-01-26 13:20:00,25.0,9.4,29.60,SE,135,0.0,0.0,51,0.00,,,0.00,WUHU21623XXSP,2013-01-26 19:20:00,
2013-01-26 13:25:00,24.6,9.0,29.59,South,180,7.8,7.8,51,0.00,,,0.00,WUHU21623XXSP,2013-01-26 19:25:00,
2013-01-26 13:30:00,24.6,9.0,29.58,SW,225,0.0,7.8,51,0.00,,,0.00,WUHU21623XXSP,2013-01-26 19:30:00,
2013-01-26 13:35:00,25.0,9.4,29.58,East,90,0.0,7.8,51,0.00,,,0.00,WUHU21623XXSP,2013-01-26 19:35:00,
2013-01-26 13:40:00,25.9,10.6,29.58,SW,225,0.0,0.0,52,0.00,,,0.00,WUHU21623XXSP,2013-01-26 19:40:00,
2013-01-26 13:45:00,26.2,10.5,29.58,ESE,112,0.0,2.7,51,0.00,,,0.00,WUHU21623XXSP,2013-01-26 19:45:00,
2013-01-26 13:50:00,26.2,10.5,29.57,South,180,0.0,6.9,51,0.00,,,0.00,WUHU21623XXSP,2013-01-26 19:50:00,
2013-01-26 13:55:00,26.1,10.1,29.56,South,180,2.7,8.3,51,0.00,,,0.00,WUHU21623XXSP,2013-01-26 19:55:00,
2013-01-26 14:00:00,25.9,10.2,29.57,SSE,157,0.0,8.3,51,0.00,,,0.00,WUHU21623XXSP,2013-01-26 20:00:00,
2013-01-26 14:05:00,25.9,10.2,29.56,South,180,6.9,6.9,51,0.00,,,0.00,WUHU21623XXSP,2013-01-26 20:05:00,
2013-01-26 14:10:00,25.9,10.0,29.56,ESE,112,0.0,6.9,51,0.00,,,0.00,WUHU21623XXSP,2013-01-26 20:10:00,
2013-01-26 14:15:00,26.8,11.0,29.56,ENE,67,0.0,0.0,51,0.00,,,0.00,WUHU21623XXSP,2013-01-26 20:15:00,
2013-01-26 14:20:00,28.0,11.8,29.56,SSE,157,0.0,8.1,50,0.00,,,0.00,WUHU21623XXSP,2013-01-26 20:20:00,
2013-01-26 14:25:00,28.2,12.0,29.56,ESE,112,0.0,8.1,50,0.00,,,0.00,WUHU21623XXSP,2013-01-26 20:25:00,
2013-01-26 14:31:00,28.2,12.0,29.56,South,180,4.3,4.3,50,0.00,,,0.00,WUHU21623XXSP,2013-01-26 20:31:00,
2013-01-26 14:36:00,28.0,11.3,29.56,South,180,9.2,9.2,49,0.00,,,0.00,WUHU21623XXSP,2013-01-26 20:36:00,
2013-01-26 14:41:00,27.5,10.8,29.55,SSE,157,0.0,9.2,49,0.00,,,0.00,WUHU21623XXSP,2013-01-26 20:41:00,
2013-01-26 14:46:00,27.3,10.8,29.55,SSE,157,0.0,5.1,49,0.00,,,0.00,WUHU21623XXSP,2013-01-26 20:46:00,
2013-01-26 14:51:00,27.1,10.9,29.54,SE,135,0.0,5.4,50,0.00,,,0.00,WUHU21623XXSP,2013-01-26 20:51:00,
2013-01-26 14:56:00,27.3,11.1,29.54,South,180,6.9,6.9,50,0.00,,,0.00,WUHU21623XXSP,2013-01-26 20:56:00,
2013-01-26 15:01:00,27.5,11.3,29.54,SSW,202,0.0,6.9,50,0.00,,,0.00,WUHU21623XXSP,2013-01-26 21:01:00,
2013-01-26 15:06:00,27.3,11.1,29.54,SSE,157,0.0,0.0,50,0.00,,,0.00,WUHU21623XXSP,2013-01-26 21:06:00,
2013-01-26 15:11:00,27.1,10.9,29.54,SSE,157,0.0,0.0,50,0.00,,,0.00,WUHU21623XXSP,2013-01-26 21:11:00,
2013-01-26 15:16:00,27.1,11.4,29.54,SSE,157,0.0,0.0,51,0.00,,,0.00,WUHU21623XXSP,2013-01-26 21:16:00,
2013-01-26 15:21:00,27.1,11.4,29.54,South,180,0.0,0.0,51,0.00,,,0.00,WUHU21623XXSP,2013-01-26 21:21:00,
2013-01-26 15:26:00,27.5,11.7,29.54,South,180,6.7,6.7,51,0.00,,,0.00,WUHU21623XXSP,2013-01-26 21:26:00,
2013-01-26 15:31:00,27.7,11.9,29.54,ESE,112,0.0,6.7,50,0.00,,,0.00,WUHU21623XXSP,2013-01-26 21:31:00,
2013-01-26 15:36:00,27.3,11.1,29.54,SE,135,0.0,0.0,50,0.00,,,0.00,WUHU21623XXSP,2013-01-26 21:36:00,
2013-01-26 15:41:00,27.0,10.8,29.54,SE,135,0.0,0.0,50,0.00,,,0.00,WUHU21623XXSP,2013-01-26 21:41:00,
2013-01-26 15:46:00,26.8,11.2,29.53,SE,135,0.0,0.0,51,0.00,,,0.00,WUHU21623XXSP,2013-01-26 21:46:00,
2013-01-26 15:51:00,26.4,10.8,29.53,SE,135,0.0,0.0,51,0.00,,,0.00,WUHU21623XXSP,2013-01-26 21:51:00,
2013-01-26 15:56:00,26.6,10.8,29.53,SSE,157,0.0,0.0,51,0.00,,,0.00,WUHU21623XXSP,2013-01-26 21:56:00,
2013-01-26 16:01:00,26.6,10.8,29.53,SSE,157,0.0,0.0,51,0.00,,,0.00,WUHU21623XXSP,2013-01-26 22:01:00,
2013-01-26 16:06:00,26.4,10.7,29.53,SSE,157,0.0,0.0,51,0.00,,,0.00,WUHU21623XXSP,2013-01-26 22:06:00,
2013-01-26 16:11:00,26.4,10.7,29.53,SE,135,0.0,0.0,51,0.00,,,0.00,WUHU21623XXSP,2013-01-26 22:11:00,
2013-01-26 16:16:00,26.1,10.7,29.52,SSE,157,0.0,0.0,52,0.00,,,0.00,WUHU21623XXSP,2013-01-26 22:16:00,
2013-01-26 16:21:00,25.7,10.6,29.52,ESE,112,0.0,0.0,52,0.00,,,0.00,WUHU21623XXSP,2013-01-26 22:21:00,
2013-01-26 16:26:00,25.5,10.3,29.52,ESE,112,0.0,0.0,52,0.00,,,0.00,WUHU21623XXSP,2013-01-26 22:26:00,
2013-01-26 16:31:00,25.2,10.3,29.51,ENE,67,0.0,0.0,53,0.00,,,0.00,WUHU21623XXSP,2013-01-26 22:31:00,
2013-01-26 16:36:00,25.0,10.2,29.51,SE,135,0.0,0.0,53,0.00,,,0.00,WUHU21623XXSP,2013-01-26 22:36:00,
2013-01-26 16:41:00,25.0,10.2,29.51,ESE,112,0.0,5.6,53,0.00,,,0.00,WUHU21623XXSP,2013-01-26 22:41:00,
2013-01-26 16:46:00,25.0,10.2,29.51,SSE,157,0.0,5.6,53,0.00,,,0.00,WUHU21623XXSP,2013-01-26 22:46:00,
2013-01-26 16:51:00,25.0,10.6,29.51,ESE,112,0.0,0.0,54,0.00,,,0.00,WUHU21623XXSP,2013-01-26 22:51:00,
2013-01-26 16:56:00,24.8,10.4,29.51,ESE,112,0.0,0.0,54,0.00,,,0.00,WUHU21623XXSP,2013-01-26 22:56:00,
2013-01-26 17:01:00,24.6,10.3,29.51,ESE,112,0.0,0.0,54,0.00,,,0.00,WUHU21623XXSP,2013-01-26 23:01:00,
2013-01-26 17:06:00,24.6,10.3,29.51,ESE,112,0.9,0.9,54,0.00,,,0.00,WUHU21623XXSP,2013-01-26 23:06:00,
2013-01-26 17:11:00,24.4,10.5,29.51,SE,135,0.0,0.9,55,0.00,,,0.00,WUHU21623XXSP,2013-01-26 23:11:00,
2013-01-26 17:16:00,24.4,10.5,29.51,SE,135,0.0,0.9,55,0.00,,,0.00,WUHU21623XXSP,2013-01-26 23:16:00,
2013-01-26 17:21:00,24.4,10.5,29.51,SE,135,0.0,0.0,55,0.00,,,0.00,WUHU21623XXSP,2013-01-26 23:21:00,
2013-01-26 17:26:00,24.3,10.3,29.51,ESE,112,0.0,0.0,55,0.00,,,0.00,WUHU21623XXSP,2013-01-26 23:26:00,
2013-01-26 17:31:00,24.1,10.2,29.51,ESE,112,0.0,0.0,55,0.00,,,0.00,WUHU21623XXSP,2013-01-26 23:31:00,
2013-01-26 17:36:00,24.1,10.6,29.50,ESE,112,0.0,0.0,56,0.00,,,0.00,WUHU21623XXSP,2013-01-26 23:36:00,
2013-01-26 17:41:00,24.1,10.6,29.51,ESE,112,0.0,3.8,56,0.00,,,0.00,WUHU21623XXSP,2013-01-26 23:41:00,
2013-01-26 17:47:00,24.1,10.6,29.50,SE,135,0.0,3.8,56,0.00,,,0.00,WUHU21623XXSP,2013-01-26 23:47:00,
2013-01-26 17:52:00,24.1,10.6,29.50,South,180,0.0,2.5,56,0.00,,,0.00,WUHU21623XXSP,2013-01-26 23:52:00,
2013-01-26 17:57:00,24.1,10.6,29.51,ESE,112,0.0,2.5,56,0.00,,,0.00,WUHU21623XXSP,2013-01-26 23:57:00,
2013-01-26 18:02:00,24.1,10.6,29.51,SE,135,0.0,0.0,56,0.00,,,0.00,WUHU21623XXSP,2013-01-27 00:02:00,
2013-01-26 18:07:00,24.1,10.6,29.50,SE,135,0.0,0.0,56,0.00,,,0.00,WUHU21623XXSP,2013-01-27 00:07:00,
2013-01-26 18:12:00,24.1,10.6,29.50,SE,135,0.0,0.0,57,0.00,,,0.00,WUHU21623XXSP,2013-01-27 00:12:00,
2013-01-26 18:17:00,24.1,11.0,29.50,SE,135,0.0,0.0,57,0.00,,,0.00,WUHU21623XXSP,2013-01-27 00:17:00,
2013-01-26 18:22:00,24.1,11.0,29.50,SE,135,0.0,0.0,57,0.00,,,0.00,WUHU21623XXSP,2013-01-27 00:22:00,
2013-01-26 18:27:00,24.1,11.0,29.51,ESE,112,0.0,0.0,57,0.00,,,0.00,WUHU21623XXSP,2013-01-27 00:27:00,
2013-01-26 18:32:00,24.3,11.1,29.51,SE,135,0.0,0.0,57,0.00,,,0.00,WUHU21623XXSP,2013-01-27 00:32:00,
2013-01-26 18:37:00,24.4,11.3,29.50,ESE,112,0.0,0.0,57,0.00,,,0.00,WUHU21623XXSP,2013-01-27 00:37:00,
2013-01-26 18:42:00,24.4,11.3,29.50,South,180,0.0,0.0,57,0.00,,,0.00,WUHU21623XXSP,2013-01-27 00:42:00,
2013-01-26 18:47:00,24.4,11.3,29.50,SSE,157,0.0,0.0,57,0.00,,,0.00,WUHU21623XXSP,2013-01-27 00:47:00,
2013-01-26 18:52:00,24.4,11.3,29.49,SE,135,0.0,0.0,57,0.00,,,0.00,WUHU21623XXSP,2013-01-27 00:52:00,
2013-01-26 18:57:00,24.4,11.3,29.49,ENE,67,0.0,0.0,57,0.00,,,0.00,WUHU21623XXSP,2013-01-27 00:57:00,
2013-01-26 19:02:00,24.4,11.3,29.49,South,180,0.0,0.0,57,0.00,,,0.00,WUHU21623XXSP,2013-01-27 01:02:00,
2013-01-26 19:07:00,24.4,11.3,29.49,ESE,112,0.0,0.0,57,0.00,,,0.00,WUHU21623XXSP,2013-01-27 01:07:00,
2013-01-26 19:12:00,24.6,11.5,29.49,ESE,112,0.0,0.0,57,0.00,,,0.00,WUHU21623XXSP,2013-01-27 01:12:00,
2013-01-26 19:17:00,24.6,11.5,29.49,ESE,112,0.0,0.0,57,0.00,,,0.00,WUHU21623XXSP,2013-01-27 01:17:00,
2013-01-26 19:22:00,24.6,11.5,29.51,SE,135,0.0,0.0,57,0.00,,,0.00,WUHU21623XXSP,2013-01-27 01:22:00,
2013-01-26 19:27:00,25.0,11.8,29.50,ESE,112,0.0,0.0,57,0.00,,,0.00,WUHU21623XXSP,2013-01-27 01:27:00,
2013-01-26 19:32:00,25.0,11.8,29.51,ESE,112,0.0,0.0,57,0.00,,,0.00,WUHU21623XXSP,2013-01-27 01:32:00,
2013-01-26 19:37:00,25.0,11.8,29.51,ESE,112,0.0,0.0,57,0.00,,,0.00,WUHU21623XXSP,2013-01-27 01:37:00,
2013-01-26 19:42:00,25.0,11.8,29.50,South,180,5.1,5.1,57,0.00,,,0.00,WUHU21623XXSP,2013-01-27 01:42:00,
2013-01-26 19:47:00,25.2,12.0,29.49,South,180,0.0,6.7,57,0.00,,,0.00,WUHU21623XXSP,2013-01-27 01:47:00,
2013-01-26 19:52:00,25.2,12.0,29.50,SE,135,0.0,6.7,57,0.00,,,0.00,WUHU21623XXSP,2013-01-27 01:52:00,
2013-01-26 19:57:00,25.2,12.0,29.50,South,180,0.0,0.0,57,0.00,,,0.00,WUHU21623XXSP,2013-01-27 01:57:00,
2013-01-26 20:02:00,25.3,12.2,29.49,South,180,0.0,0.0,57,0.00,,,0.00,WUHU21623XXSP,2013-01-27 02:02:00,
2013-01-26 20:08:00,25.3,12.2,29.49,South,180,6.7,7.2,57,0.00,,,0.00,WUHU21623XXSP,2013-01-27 02:08:00,
2013-01-26 20:13:00,25.3,12.2,29.49,South,180,0.0,7.2,57,0.00,,,0.00,WUHU21623XXSP,2013-01-27 02:13:00,
2013-01-26 20:18:00,25.5,12.3,29.49,South,180,0.0,5.8,57,0.00,,,0.00,WUHU21623XXSP,2013-01-27 02:18:00,
2013-01-26 20:23:00,25.5,12.3,29.49,South,180,7.8,7.8,57,0.00,,,0.00,WUHU21623XXSP,2013-01-27 02:23:00,
2013-01-26 20:28:00,25.5,12.3,29.48,South,180,5.1,7.8,57,0.00,,,0.00,WUHU21623XXSP,2013-01-27 02:28:00,
2013-01-26 20:33:00,25.5,12.3,29.48,South,180,0.0,5.1,57,0.00,,,0.00,WUHU21623XXSP,2013-01-27 02:33:00,
2013-01-26 20:38:00,25.5,12.3,29.48,South,180,0.0,5.8,57,0.00,,,0.00,WUHU21623XXSP,2013-01-27 02:38:00,
2013-01-26 20:43:00,25.5,12.3,29.48,South,180,4.7,5.8,57,0.00,,,0.00,WUHU21623XXSP,2013-01-27 02:43:00,
2013-01-26 20:48:00,25.5,12.3,29.48,South,180,0.0,6.9,57,0.00,,,0.00,WUHU21623XXSP,2013-01-27 02:48:00,
2013-01-26 20:53:00,25.7,12.5,29.48,South,180,5.6,8.5,57,0.00,,,0.00,WUHU21623XXSP,2013-01-27 02:53:00,
2013-01-26 20:58:00,25.7,12.5,29.48,South,180,6.5,8.5,57,0.00,,,0.00,WUHU21623XXSP,2013-01-27 02:58:00,
2013-01-26 21:03:00,25.9,12.6,29.48,South,180,8.1,8.1,57,0.00,,,0.00,WUHU21623XXSP,2013-01-27 03:03:00,
2013-01-26 21:08:00,25.9,12.6,29.48,South,180,6.0,8.1,57,0.00,,,0.00,WUHU21623XXSP,2013-01-27 03:08:00,
2013-01-26 21:13:00,25.7,12.5,29.48,South,180,4.0,7.6,57,0.00,,,0.00,WUHU21623XXSP,2013-01-27 03:13:00,
2013-01-26 21:18:00,25.5,12.3,29.47,South,180,0.0,4.0,57,0.00,,,0.00,WUHU21623XXSP,2013-01-27 03:18:00,
2013-01-26 21:23:00,25.5,12.3,29.47,South,180,7.4,7.4,57,0.00,,,0.00,WUHU21623XXSP,2013-01-27 03:23:00,
2013-01-26 21:28:00,25.5,12.3,29.48,South,180,0.0,7.4,57,0.00,,,0.00,WUHU21623XXSP,2013-01-27 03:28:00,
2013-01-26 21:33:00,25.7,12.5,29.48,South,180,2.9,7.2,57,0.00,,,0.00,WUHU21623XXSP,2013-01-27 03:33:00,
2013-01-26 21:38:00,25.9,12.6,29.48,East,90,0.0,2.9,57,0.00,,,0.00,WUHU21623XXSP,2013-01-27 03:38:00,
2013-01-26 21:43:00,25.7,12.5,29.48,ESE,112,0.0,2.7,57,0.00,,,0.00,WUHU21623XXSP,2013-01-27 03:43:00,
2013-01-26 21:48:00,25.5,12.3,29.48,SE,135,0.0,0.0,57,0.00,,,0.00,WUHU21623XXSP,2013-01-27 03:48:00,
2013-01-26 21:53:00,25.5,12.3,29.48,SE,135,0.0,0.0,57,0.00,,,0.00,WUHU21623XXSP,2013-01-27 03:53:00,
2013-01-26 21:58:00,25.3,12.2,29.48,SE,135,0.0,0.0,57,0.00,,,0.00,WUHU21623XXSP,2013-01-27 03:58:00,
2013-01-26 22:03:00,25.2,12.0,29.48,SE,135,0.0,0.0,57,0.00,,,0.00,WUHU21623XXSP,2013-01-27 04:03:00,
2013-01-26 22:08:00,25.0,11.8,29.48,SSE,157,0.0,0.0,57,0.00,,,0.00,WUHU21623XXSP,2013-01-27 04:08:00,
2013-01-26 22:13:00,25.0,11.8,29.48,SSE,157,0.0,0.0,57,0.00,,,0.00,WUHU21623XXSP,2013-01-27 04:13:00,
2013-01-26 22:19:00,24.6,11.9,29.48,SE,135,0.0,0.0,58,0.00,,,0.00,WUHU21623XXSP,2013-01-27 04:19:00,
2013-01-26 22:24:00,24.4,11.7,29.48,SE,135,0.0,0.0,58,0.00,,,0.00,WUHU21623XXSP,2013-01-27 04:24:00,
2013-01-26 22:29:00,24.4,11.7,29.48,SE,135,0.0,0.0,58,0.00,,,0.00,WUHU21623XXSP,2013-01-27 04:29:00,
2013-01-26 22:34:00,24.1,11.8,29.48,ENE,67,0.0,0.0,59,0.00,,,0.00,WUHU21623XXSP,2013-01-27 04:34:00,
2013-01-26 22:39:00,24.3,12.0,29.48,ESE,112,0.0,0.0,59,0.00,,,0.00,WUHU21623XXSP,2013-01-27 04:39:00,
2013-01-26 22:44:00,24.4,12.1,29.48,SSE,157,0.0,0.0,59,0.00,,,0.00,WUHU21623XXSP,2013-01-27 04:44:00,
2013-01-26 22:49:00,24.4,12.1,29.48,SE,135,0.0,0.0,59,0.00,,,0.00,WUHU21623XXSP,2013-01-27 04:49:00,
2013-01-26 22:54:00,24.4,12.1,29.47,SE,135,0.0,0.0,59,0.00,,,0.00,WUHU21623XXSP,2013-01-27 04:54:00,
2013-01-26 22:59:00,24.4,12.1,29.47,SSE,157,0.0,0.0,59,0.00,,,0.00,WUHU21623XXSP,2013-01-27 04:59:00,
2013-01-26 23:00:00,24.4,12.1,29.47,SSE,157,0.0,0.0,59,0.00,,,0.00,WUHU21623XXSP,2013-01-27 05:00:00,
2013-01-26 23:01:00,24.6,12.3,29.47,South,180,4.7,4.7,59,0.00,,,0.00,WUHU21623XXSP,2013-01-27 05:01:00,
2013-01-26 23:02:00,24.6,12.3,29.47,South,180,4.7,4.7,59,0.00,,,0.00,WUHU21623XXSP,2013-01-27 05:02:00,
2013-01-26 23:07:00,24.6,12.3,29.47,South,180,0.0,4.7,59,0.00,,,0.00,WUHU21623XXSP,2013-01-27 05:07:00,
2013-01-26 23:12:00,24.6,12.3,29.47,South,180,6.0,6.0,59,0.00,,,0.00,WUHU21623XXSP,2013-01-27 05:12:00,
2013-01-26 23:17:00,24.6,12.3,29.47,SSE,157,0.0,6.0,59,0.00,,,0.00,WUHU21623XXSP,2013-01-27 05:17:00,
2013-01-26 23:22:00,24.8,12.5,29.47,South,180,4.5,4.5,59,0.00,,,0.00,WUHU21623XXSP,2013-01-27 05:22:00,
2013-01-26 23:27:00,25.0,12.7,29.47,South,180,6.3,6.3,59,0.00,,,0.00,WUHU21623XXSP,2013-01-27 05:27:00,
2013-01-26 23:32:00,25.0,12.7,29.47,South,180,0.0,6.3,59,0.00,,,0.00,WUHU21623XXSP,2013-01-27 05:32:00,
2013-01-26 23:37:00,25.0,12.7,29.47,SSE,157,0.0,6.3,59,0.00,,,0.00,WUHU21623XXSP,2013-01-27 05:37:00,
2013-01-26 23:42:00,25.2,12.8,29.46,South,180,6.9,6.9,59,0.00,,,0.00,WUHU21623XXSP,2013-01-27 05:42:00,
2013-01-26 23:47:00,25.3,13.0,29.46,South,180,6.7,6.9,59,0.00,,,0.00,WUHU21623XXSP,2013-01-27 05:47:00,
2013-01-26 23:52:00,25.3,13.0,29.47,South,180,6.7,6.7,59,0.00,,,0.00,WUHU21623XXSP,2013-01-27 05:52:00,
2013-01-26 23:57:00,25.3,13.0,29.46,South,180,6.0,6.7,59,0.00,,,0.00,WUHU21623XXSP,2013-01-27 05:57:00,